sensor_id;sensor_type;location;lat;lon;timestamp;temperature;humidity
6552;DHT22;3309;48.708;9.290;2022-08-03T00:02:16;17.30;99.90
6552;DHT22;3309;48.708;9.290;2022-08-03T00:04:42;17.30;99.90
6552;DHT22;3309;48.708;9.290;2022-08-03T00:07:07;17.30;99.90
6552;DHT22;3309;48.708;9.290;2022-08-03T00:09:33;17.30;99.90
6552;DHT22;3309;48.708;9.290;2022-08-03T00:11:58;17.20;99.90
6552;DHT22;3309;48.708;9.290;2022-08-03T00:14:24;17.20;99.90
6552;DHT22;3309;48.708;9.290;2022-08-03T00:16:49;17.20;99.90
6552;DHT22;3309;48.708;9.290;2022-08-03T00:19:15;17.20;99.90
6552;DHT22;3309;48.708;9.290;2022-08-03T00:21:40;17.20;99.90
6552;DHT22;3309;48.708;9.290;2022-08-03T00:24:06;17.10;99.90
6552;DHT22;3309;48.708;9.290;2022-08-03T00:26:32;17.00;99.90
6552;DHT22;3309;48.708;9.290;2022-08-03T00:28:57;17.00;99.90
6552;DHT22;3309;48.708;9.290;2022-08-03T00:31:23;17.00;99.90
6552;DHT22;3309;48.708;9.290;2022-08-03T00:33:48;16.90;99.90
6552;DHT22;3309;48.708;9.290;2022-08-03T00:36:14;16.90;99.90
6552;DHT22;3309;48.708;9.290;2022-08-03T00:38:40;16.90;99.90
6552;DHT22;3309;48.708;9.290;2022-08-03T00:41:05;17.00;99.90
6552;DHT22;3309;48.708;9.290;2022-08-03T00:43:31;17.00;99.90
6552;DHT22;3309;48.708;9.290;2022-08-03T00:45:56;17.00;99.90
6552;DHT22;3309;48.708;9.290;2022-08-03T00:48:22;16.80;99.90
6552;DHT22;3309;48.708;9.290;2022-08-03T00:50:48;16.80;99.90
6552;DHT22;3309;48.708;9.290;2022-08-03T00:53:13;16.90;99.90
6552;DHT22;3309;48.708;9.290;2022-08-03T00:55:40;16.90;99.90
6552;DHT22;3309;48.708;9.290;2022-08-03T00:58:07;16.90;99.90
6552;DHT22;3309;48.708;9.290;2022-08-03T01:00:35;16.70;99.90
6552;DHT22;3309;48.708;9.290;2022-08-03T01:03:03;16.70;99.90
6552;DHT22;3309;48.708;9.290;2022-08-03T01:05:29;16.80;99.90
6552;DHT22;3309;48.708;9.290;2022-08-03T01:11:06;16.60;99.90
6552;DHT22;3309;48.708;9.290;2022-08-03T01:13:40;16.50;99.90
6552;DHT22;3309;48.708;9.290;2022-08-03T01:28:06;16.70;99.90
6552;DHT22;3309;48.708;9.290;2022-08-03T01:30:39;16.70;99.90
6552;DHT22;3309;48.708;9.290;2022-08-03T01:33:19;16.70;99.90
6552;DHT22;3309;48.708;9.290;2022-08-03T01:35:57;16.70;99.90
6552;DHT22;3309;48.708;9.290;2022-08-03T01:38:27;16.60;99.90
6552;DHT22;3309;48.708;9.290;2022-08-03T01:40:55;16.60;99.90
6552;DHT22;3309;48.708;9.290;2022-08-03T01:43:25;16.50;99.90
6552;DHT22;3309;48.708;9.290;2022-08-03T01:45:55;16.40;99.90
6552;DHT22;3309;48.708;9.290;2022-08-03T01:48:21;16.50;99.90
6552;DHT22;3309;48.708;9.290;2022-08-03T01:50:48;16.60;99.90
6552;DHT22;3309;48.708;9.290;2022-08-03T01:53:14;16.60;99.90
6552;DHT22;3309;48.708;9.290;2022-08-03T01:55:43;16.60;99.90
6552;DHT22;3309;48.708;9.290;2022-08-03T01:58:11;16.40;99.90
6552;DHT22;3309;48.708;9.290;2022-08-03T02:00:38;16.30;99.90
6552;DHT22;3309;48.708;9.290;2022-08-03T02:03:05;16.10;99.90
6552;DHT22;3309;48.708;9.290;2022-08-03T02:05:32;16.20;99.90
6552;DHT22;3309;48.708;9.290;2022-08-03T02:08:00;16.30;99.90
6552;DHT22;3309;48.708;9.290;2022-08-03T02:10:28;16.30;99.90
6552;DHT22;3309;48.708;9.290;2022-08-03T02:12:54;16.20;99.90
6552;DHT22;3309;48.708;9.290;2022-08-03T02:15:22;16.30;99.90
6552;DHT22;3309;48.708;9.290;2022-08-03T02:17:49;16.30;99.90
6552;DHT22;3309;48.708;9.290;2022-08-03T02:20:15;16.30;99.90
6552;DHT22;3309;48.708;9.290;2022-08-03T02:22:42;16.40;99.90
6552;DHT22;3309;48.708;9.290;2022-08-03T02:25:10;16.40;99.90
6552;DHT22;3309;48.708;9.290;2022-08-03T02:27:38;16.40;99.90
6552;DHT22;3309;48.708;9.290;2022-08-03T02:30:07;16.20;99.90
6552;DHT22;3309;48.708;9.290;2022-08-03T02:32:39;16.20;99.90
6552;DHT22;3309;48.708;9.290;2022-08-03T02:35:10;16.30;99.90
6552;DHT22;3309;48.708;9.290;2022-08-03T02:37:41;16.30;99.90
6552;DHT22;3309;48.708;9.290;2022-08-03T02:40:08;16.30;99.90
6552;DHT22;3309;48.708;9.290;2022-08-03T02:42:35;16.30;99.90
6552;DHT22;3309;48.708;9.290;2022-08-03T02:45:05;16.30;99.90
6552;DHT22;3309;48.708;9.290;2022-08-03T02:47:34;16.20;99.90
6552;DHT22;3309;48.708;9.290;2022-08-03T02:50:01;16.10;99.90
6552;DHT22;3309;48.708;9.290;2022-08-03T02:52:29;16.00;99.90
6552;DHT22;3309;48.708;9.290;2022-08-03T02:54:58;16.10;99.90
6552;DHT22;3309;48.708;9.290;2022-08-03T02:57:26;15.90;99.90
6552;DHT22;3309;48.708;9.290;2022-08-03T02:59:53;16.00;99.90
6552;DHT22;3309;48.708;9.290;2022-08-03T03:02:19;16.00;99.90
6552;DHT22;3309;48.708;9.290;2022-08-03T03:04:46;15.90;99.90
6552;DHT22;3309;48.708;9.290;2022-08-03T03:07:14;15.90;99.90
6552;DHT22;3309;48.708;9.290;2022-08-03T03:09:41;15.90;99.90
6552;DHT22;3309;48.708;9.290;2022-08-03T03:12:09;16.00;99.90
6552;DHT22;3309;48.708;9.290;2022-08-03T03:14:36;16.00;99.90
6552;DHT22;3309;48.708;9.290;2022-08-03T03:17:02;15.90;99.90
6552;DHT22;3309;48.708;9.290;2022-08-03T03:19:30;16.00;99.90
6552;DHT22;3309;48.708;9.290;2022-08-03T03:22:01;15.90;99.90
6552;DHT22;3309;48.708;9.290;2022-08-03T03:24:28;15.80;99.90
6552;DHT22;3309;48.708;9.290;2022-08-03T03:26:54;15.70;99.90
6552;DHT22;3309;48.708;9.290;2022-08-03T03:29:21;15.70;99.90
6552;DHT22;3309;48.708;9.290;2022-08-03T03:31:47;15.70;99.90
6552;DHT22;3309;48.708;9.290;2022-08-03T03:34:13;15.70;99.90
6552;DHT22;3309;48.708;9.290;2022-08-03T03:36:39;15.50;99.90
6552;DHT22;3309;48.708;9.290;2022-08-03T03:39:04;15.50;99.90
6552;DHT22;3309;48.708;9.290;2022-08-03T03:41:30;15.50;99.90
6552;DHT22;3309;48.708;9.290;2022-08-03T03:43:56;15.50;99.90
6552;DHT22;3309;48.708;9.290;2022-08-03T03:46:22;15.60;99.90
6552;DHT22;3309;48.708;9.290;2022-08-03T03:48:47;15.60;99.90
6552;DHT22;3309;48.708;9.290;2022-08-03T03:51:14;15.60;99.90
6552;DHT22;3309;48.708;9.290;2022-08-03T03:53:39;15.70;99.90
6552;DHT22;3309;48.708;9.290;2022-08-03T03:56:05;15.60;99.90
6552;DHT22;3309;48.708;9.290;2022-08-03T03:58:31;15.70;99.90
6552;DHT22;3309;48.708;9.290;2022-08-03T04:00:57;15.60;99.90
6552;DHT22;3309;48.708;9.290;2022-08-03T04:03:23;15.50;99.90
6552;DHT22;3309;48.708;9.290;2022-08-03T04:05:48;15.60;99.90
6552;DHT22;3309;48.708;9.290;2022-08-03T04:08:32;15.60;99.90
6552;DHT22;3309;48.708;9.290;2022-08-03T04:11:23;15.70;99.90
6552;DHT22;3309;48.708;9.290;2022-08-03T04:14:06;15.70;99.90
6552;DHT22;3309;48.708;9.290;2022-08-03T04:16:35;15.70;99.90
6552;DHT22;3309;48.708;9.290;2022-08-03T04:19:08;15.70;99.90
6552;DHT22;3309;48.708;9.290;2022-08-03T04:21:37;15.70;99.90
6552;DHT22;3309;48.708;9.290;2022-08-03T04:24:06;15.80;99.90
6552;DHT22;3309;48.708;9.290;2022-08-03T04:26:35;15.80;99.90
6552;DHT22;3309;48.708;9.290;2022-08-03T04:29:02;15.80;99.90
6552;DHT22;3309;48.708;9.290;2022-08-03T04:31:29;15.80;99.90
6552;DHT22;3309;48.708;9.290;2022-08-03T04:33:55;15.90;99.90
6552;DHT22;3309;48.708;9.290;2022-08-03T04:36:24;15.80;99.90
6552;DHT22;3309;48.708;9.290;2022-08-03T04:39:04;15.80;99.90
6552;DHT22;3309;48.708;9.290;2022-08-03T04:41:31;15.90;99.90
6552;DHT22;3309;48.708;9.290;2022-08-03T04:43:59;16.00;99.90
6552;DHT22;3309;48.708;9.290;2022-08-03T04:46:27;16.10;99.90
6552;DHT22;3309;48.708;9.290;2022-08-03T04:48:54;16.30;99.90
6552;DHT22;3309;48.708;9.290;2022-08-03T04:51:20;16.50;99.90
6552;DHT22;3309;48.708;9.290;2022-08-03T04:53:46;16.40;99.90
6552;DHT22;3309;48.708;9.290;2022-08-03T04:56:11;16.50;99.90
6552;DHT22;3309;48.708;9.290;2022-08-03T04:58:37;16.70;99.90
6552;DHT22;3309;48.708;9.290;2022-08-03T05:01:02;16.80;99.90
6552;DHT22;3309;48.708;9.290;2022-08-03T05:03:28;16.80;99.90
6552;DHT22;3309;48.708;9.290;2022-08-03T05:05:54;16.90;99.90
6552;DHT22;3309;48.708;9.290;2022-08-03T05:08:20;16.90;99.90
6552;DHT22;3309;48.708;9.290;2022-08-03T05:10:46;16.80;99.90
6552;DHT22;3309;48.708;9.290;2022-08-03T05:13:11;16.90;99.90
6552;DHT22;3309;48.708;9.290;2022-08-03T05:15:38;16.90;99.90
6552;DHT22;3309;48.708;9.290;2022-08-03T05:18:04;17.10;99.90
6552;DHT22;3309;48.708;9.290;2022-08-03T05:20:29;17.30;99.90
6552;DHT22;3309;48.708;9.290;2022-08-03T05:22:55;17.70;99.90
6552;DHT22;3309;48.708;9.290;2022-08-03T05:25:22;18.10;99.90
6552;DHT22;3309;48.708;9.290;2022-08-03T05:27:47;17.90;99.90
6552;DHT22;3309;48.708;9.290;2022-08-03T05:30:13;17.30;99.90
6552;DHT22;3309;48.708;9.290;2022-08-03T05:32:39;17.50;99.90
6552;DHT22;3309;48.708;9.290;2022-08-03T05:35:05;18.40;99.90
6552;DHT22;3309;48.708;9.290;2022-08-03T05:37:31;18.40;99.90
6552;DHT22;3309;48.708;9.290;2022-08-03T05:39:56;18.10;99.90
6552;DHT22;3309;48.708;9.290;2022-08-03T05:42:22;18.00;99.90
6552;DHT22;3309;48.708;9.290;2022-08-03T05:44:47;17.70;99.90
6552;DHT22;3309;48.708;9.290;2022-08-03T05:47:13;17.90;99.90
6552;DHT22;3309;48.708;9.290;2022-08-03T05:49:38;18.10;99.90
6552;DHT22;3309;48.708;9.290;2022-08-03T05:52:04;18.70;99.90
6552;DHT22;3309;48.708;9.290;2022-08-03T05:54:29;18.90;91.30
6552;DHT22;3309;48.708;9.290;2022-08-03T05:56:55;18.60;99.90
6552;DHT22;3309;48.708;9.290;2022-08-03T05:59:20;18.70;99.90
6552;DHT22;3309;48.708;9.290;2022-08-03T06:01:46;18.90;99.90
6552;DHT22;3309;48.708;9.290;2022-08-03T06:04:12;18.80;99.90
6552;DHT22;3309;48.708;9.290;2022-08-03T06:06:37;18.90;41.80
6552;DHT22;3309;48.708;9.290;2022-08-03T06:09:03;18.80;53.70
6552;DHT22;3309;48.708;9.290;2022-08-03T06:11:28;18.80;80.80
6552;DHT22;3309;48.708;9.290;2022-08-03T06:13:54;18.90;16.40
6552;DHT22;3309;48.708;9.290;2022-08-03T06:16:20;19.20;5.00
6552;DHT22;3309;48.708;9.290;2022-08-03T06:18:45;19.40;1.00
6552;DHT22;3309;48.708;9.290;2022-08-03T06:21:11;19.20;27.50
6552;DHT22;3309;48.708;9.290;2022-08-03T06:23:36;19.50;1.00
6552;DHT22;3309;48.708;9.290;2022-08-03T06:26:02;19.80;1.00
6552;DHT22;3309;48.708;9.290;2022-08-03T06:28:28;19.90;1.00
6552;DHT22;3309;48.708;9.290;2022-08-03T06:30:53;19.70;1.00
6552;DHT22;3309;48.708;9.290;2022-08-03T06:33:19;19.90;1.00
6552;DHT22;3309;48.708;9.290;2022-08-03T06:35:44;20.30;1.00
6552;DHT22;3309;48.708;9.290;2022-08-03T06:38:10;20.20;1.00
6552;DHT22;3309;48.708;9.290;2022-08-03T06:40:36;20.10;1.00
6552;DHT22;3309;48.708;9.290;2022-08-03T06:43:05;20.30;1.00
6552;DHT22;3309;48.708;9.290;2022-08-03T06:45:31;20.50;1.00
6552;DHT22;3309;48.708;9.290;2022-08-03T06:48:05;20.30;1.00
6552;DHT22;3309;48.708;9.290;2022-08-03T06:50:32;20.40;1.00
6552;DHT22;3309;48.708;9.290;2022-08-03T06:52:58;21.20;1.00
6552;DHT22;3309;48.708;9.290;2022-08-03T06:55:23;21.10;1.00
6552;DHT22;3309;48.708;9.290;2022-08-03T06:57:49;21.20;1.00
6552;DHT22;3309;48.708;9.290;2022-08-03T07:00:15;21.30;1.00
6552;DHT22;3309;48.708;9.290;2022-08-03T07:02:41;22.00;99.90
6552;DHT22;3309;48.708;9.290;2022-08-03T07:05:07;21.80;1.00
6552;DHT22;3309;48.708;9.290;2022-08-03T07:07:33;21.60;99.90
6552;DHT22;3309;48.708;9.290;2022-08-03T07:09:59;21.60;99.90
6552;DHT22;3309;48.708;9.290;2022-08-03T07:12:26;22.10;99.90
6552;DHT22;3309;48.708;9.290;2022-08-03T07:14:52;22.30;1.00
6552;DHT22;3309;48.708;9.290;2022-08-03T07:17:17;22.20;99.90
6552;DHT22;3309;48.708;9.290;2022-08-03T07:19:43;22.40;1.00
6552;DHT22;3309;48.708;9.290;2022-08-03T07:22:08;22.20;1.00
6552;DHT22;3309;48.708;9.290;2022-08-03T07:24:35;22.50;1.00
6552;DHT22;3309;48.708;9.290;2022-08-03T07:27:01;22.80;21.00
6552;DHT22;3309;48.708;9.290;2022-08-03T07:29:27;23.30;1.00
6552;DHT22;3309;48.708;9.290;2022-08-03T07:31:52;23.30;99.90
6552;DHT22;3309;48.708;9.290;2022-08-03T07:34:18;23.30;99.90
6552;DHT22;3309;48.708;9.290;2022-08-03T07:36:44;23.20;1.00
6552;DHT22;3309;48.708;9.290;2022-08-03T07:39:09;23.80;1.00
6552;DHT22;3309;48.708;9.290;2022-08-03T07:41:35;24.10;99.90
6552;DHT22;3309;48.708;9.290;2022-08-03T07:44:01;24.00;1.00
6552;DHT22;3309;48.708;9.290;2022-08-03T07:46:27;24.60;1.00
6552;DHT22;3309;48.708;9.290;2022-08-03T07:48:53;24.90;99.90
6552;DHT22;3309;48.708;9.290;2022-08-03T07:51:18;25.30;35.00
6552;DHT22;3309;48.708;9.290;2022-08-03T07:53:44;26.10;1.00
6552;DHT22;3309;48.708;9.290;2022-08-03T07:56:09;26.30;1.00
6552;DHT22;3309;48.708;9.290;2022-08-03T07:58:35;26.90;1.00
6552;DHT22;3309;48.708;9.290;2022-08-03T08:01:01;27.30;1.00
6552;DHT22;3309;48.708;9.290;2022-08-03T08:03:27;27.80;1.00
6552;DHT22;3309;48.708;9.290;2022-08-03T08:05:52;27.60;1.00
6552;DHT22;3309;48.708;9.290;2022-08-03T08:08:18;27.70;1.00
6552;DHT22;3309;48.708;9.290;2022-08-03T08:10:47;28.20;1.00
6552;DHT22;3309;48.708;9.290;2022-08-03T08:13:13;28.70;1.00
6552;DHT22;3309;48.708;9.290;2022-08-03T08:15:38;28.90;1.00
6552;DHT22;3309;48.708;9.290;2022-08-03T08:18:04;29.20;1.00
6552;DHT22;3309;48.708;9.290;2022-08-03T08:20:32;29.10;1.00
6552;DHT22;3309;48.708;9.290;2022-08-03T08:23:00;29.40;1.00
6552;DHT22;3309;48.708;9.290;2022-08-03T08:25:26;29.50;1.00
6552;DHT22;3309;48.708;9.290;2022-08-03T08:27:52;29.30;1.00
6552;DHT22;3309;48.708;9.290;2022-08-03T08:30:20;29.70;1.00
6552;DHT22;3309;48.708;9.290;2022-08-03T08:32:47;29.80;1.00
6552;DHT22;3309;48.708;9.290;2022-08-03T08:35:13;30.00;1.00
6552;DHT22;3309;48.708;9.290;2022-08-03T08:37:39;30.20;1.00
6552;DHT22;3309;48.708;9.290;2022-08-03T08:40:06;30.10;1.00
6552;DHT22;3309;48.708;9.290;2022-08-03T08:42:32;30.50;1.00
6552;DHT22;3309;48.708;9.290;2022-08-03T08:44:59;30.50;1.00
6552;DHT22;3309;48.708;9.290;2022-08-03T08:47:30;30.90;1.00
6552;DHT22;3309;48.708;9.290;2022-08-03T08:49:57;30.90;1.00
6552;DHT22;3309;48.708;9.290;2022-08-03T08:52:25;31.30;1.00
6552;DHT22;3309;48.708;9.290;2022-08-03T08:54:56;31.50;1.00
6552;DHT22;3309;48.708;9.290;2022-08-03T08:57:27;31.50;1.00
6552;DHT22;3309;48.708;9.290;2022-08-03T08:59:53;31.40;1.00
6552;DHT22;3309;48.708;9.290;2022-08-03T09:02:24;31.90;1.00
6552;DHT22;3309;48.708;9.290;2022-08-03T09:04:50;31.60;1.00
6552;DHT22;3309;48.708;9.290;2022-08-03T09:07:16;31.70;1.00
6552;DHT22;3309;48.708;9.290;2022-08-03T09:09:42;31.70;1.00
6552;DHT22;3309;48.708;9.290;2022-08-03T09:12:08;32.00;1.00
6552;DHT22;3309;48.708;9.290;2022-08-03T09:14:34;32.40;1.00
6552;DHT22;3309;48.708;9.290;2022-08-03T09:17:00;32.50;1.00
6552;DHT22;3309;48.708;9.290;2022-08-03T09:19:28;32.60;1.00
6552;DHT22;3309;48.708;9.290;2022-08-03T09:22:14;32.70;1.00
6552;DHT22;3309;48.708;9.290;2022-08-03T09:24:58;33.00;1.00
6552;DHT22;3309;48.708;9.290;2022-08-03T09:27:24;32.60;1.00
6552;DHT22;3309;48.708;9.290;2022-08-03T09:29:51;32.30;1.00
6552;DHT22;3309;48.708;9.290;2022-08-03T09:32:22;32.90;1.00
6552;DHT22;3309;48.708;9.290;2022-08-03T09:34:48;32.70;1.00
6552;DHT22;3309;48.708;9.290;2022-08-03T09:37:16;33.20;1.00
6552;DHT22;3309;48.708;9.290;2022-08-03T09:39:42;33.20;1.00
6552;DHT22;3309;48.708;9.290;2022-08-03T09:42:12;33.50;1.00
6552;DHT22;3309;48.708;9.290;2022-08-03T09:44:40;32.90;1.00
6552;DHT22;3309;48.708;9.290;2022-08-03T09:47:09;32.60;1.00
6552;DHT22;3309;48.708;9.290;2022-08-03T09:49:36;33.30;1.00
6552;DHT22;3309;48.708;9.290;2022-08-03T09:52:12;33.70;1.00
6552;DHT22;3309;48.708;9.290;2022-08-03T09:54:39;33.70;1.00
6552;DHT22;3309;48.708;9.290;2022-08-03T09:57:05;34.00;1.00
6552;DHT22;3309;48.708;9.290;2022-08-03T09:59:31;34.10;1.00
6552;DHT22;3309;48.708;9.290;2022-08-03T10:01:58;33.60;1.00
6552;DHT22;3309;48.708;9.290;2022-08-03T10:04:27;33.60;1.00
6552;DHT22;3309;48.708;9.290;2022-08-03T10:07:07;33.40;1.00
6552;DHT22;3309;48.708;9.290;2022-08-03T10:09:34;33.20;1.00
6552;DHT22;3309;48.708;9.290;2022-08-03T10:12:10;33.20;1.00
6552;DHT22;3309;48.708;9.290;2022-08-03T10:14:38;33.40;1.00
6552;DHT22;3309;48.708;9.290;2022-08-03T10:17:04;33.00;1.00
6552;DHT22;3309;48.708;9.290;2022-08-03T10:19:29;33.70;1.00
6552;DHT22;3309;48.708;9.290;2022-08-03T10:22:02;33.50;1.00
6552;DHT22;3309;48.708;9.290;2022-08-03T10:24:29;33.90;1.00
6552;DHT22;3309;48.708;9.290;2022-08-03T10:27:04;34.10;1.00
6552;DHT22;3309;48.708;9.290;2022-08-03T10:29:37;33.60;1.00
6552;DHT22;3309;48.708;9.290;2022-08-03T10:32:08;33.50;1.00
6552;DHT22;3309;48.708;9.290;2022-08-03T10:34:36;33.80;1.00
6552;DHT22;3309;48.708;9.290;2022-08-03T10:37:08;34.10;1.00
6552;DHT22;3309;48.708;9.290;2022-08-03T10:39:35;34.30;1.00
6552;DHT22;3309;48.708;9.290;2022-08-03T10:42:01;34.30;1.00
6552;DHT22;3309;48.708;9.290;2022-08-03T10:44:32;34.10;1.00
6552;DHT22;3309;48.708;9.290;2022-08-03T10:47:01;34.10;1.00
6552;DHT22;3309;48.708;9.290;2022-08-03T10:49:28;33.90;1.00
6552;DHT22;3309;48.708;9.290;2022-08-03T10:51:54;33.80;1.00
6552;DHT22;3309;48.708;9.290;2022-08-03T10:54:43;33.90;1.00
6552;DHT22;3309;48.708;9.290;2022-08-03T10:57:49;34.20;1.00
6552;DHT22;3309;48.708;9.290;2022-08-03T11:00:17;33.30;1.00
6552;DHT22;3309;48.708;9.290;2022-08-03T11:03:11;33.40;1.00
6552;DHT22;3309;48.708;9.290;2022-08-03T11:05:43;33.60;1.00
6552;DHT22;3309;48.708;9.290;2022-08-03T11:08:22;33.80;1.00
6552;DHT22;3309;48.708;9.290;2022-08-03T11:10:49;33.50;1.00
6552;DHT22;3309;48.708;9.290;2022-08-03T11:13:18;33.40;1.00
6552;DHT22;3309;48.708;9.290;2022-08-03T11:15:46;33.00;1.00
6552;DHT22;3309;48.708;9.290;2022-08-03T11:18:13;33.40;1.00
6552;DHT22;3309;48.708;9.290;2022-08-03T11:20:44;34.00;1.00
6552;DHT22;3309;48.708;9.290;2022-08-03T11:23:10;34.40;1.00
6552;DHT22;3309;48.708;9.290;2022-08-03T11:28:33;34.50;1.00
6552;DHT22;3309;48.708;9.290;2022-08-03T11:34:03;33.90;1.00
6552;DHT22;3309;48.708;9.290;2022-08-03T11:36:29;33.40;1.00
6552;DHT22;3309;48.708;9.290;2022-08-03T11:39:14;32.60;1.00
6552;DHT22;3309;48.708;9.290;2022-08-03T11:41:40;32.60;1.00
6552;DHT22;3309;48.708;9.290;2022-08-03T11:44:06;32.50;1.00
6552;DHT22;3309;48.708;9.290;2022-08-03T11:46:36;32.90;1.00
6552;DHT22;3309;48.708;9.290;2022-08-03T11:49:05;33.20;1.00
6552;DHT22;3309;48.708;9.290;2022-08-03T11:51:33;33.50;1.00
6552;DHT22;3309;48.708;9.290;2022-08-03T11:54:01;33.20;1.00
6552;DHT22;3309;48.708;9.290;2022-08-03T11:56:28;33.40;1.00
6552;DHT22;3309;48.708;9.290;2022-08-03T11:59:07;34.20;1.00
6552;DHT22;3309;48.708;9.290;2022-08-03T12:01:32;34.40;1.00
6552;DHT22;3309;48.708;9.290;2022-08-03T12:04:02;34.30;1.00
6552;DHT22;3309;48.708;9.290;2022-08-03T12:06:29;34.40;1.00
6552;DHT22;3309;48.708;9.290;2022-08-03T12:08:54;33.60;1.00
6552;DHT22;3309;48.708;9.290;2022-08-03T12:11:20;33.30;1.00
6552;DHT22;3309;48.708;9.290;2022-08-03T12:13:48;33.30;1.00
6552;DHT22;3309;48.708;9.290;2022-08-03T12:16:19;33.60;1.00
6552;DHT22;3309;48.708;9.290;2022-08-03T12:18:54;33.70;1.00
6552;DHT22;3309;48.708;9.290;2022-08-03T12:21:19;33.60;1.00
6552;DHT22;3309;48.708;9.290;2022-08-03T12:23:48;33.70;1.00
6552;DHT22;3309;48.708;9.290;2022-08-03T12:26:14;33.70;1.00
6552;DHT22;3309;48.708;9.290;2022-08-03T12:28:47;33.80;1.00
6552;DHT22;3309;48.708;9.290;2022-08-03T12:31:13;33.80;1.00
6552;DHT22;3309;48.708;9.290;2022-08-03T12:34:14;33.40;1.00
6552;DHT22;3309;48.708;9.290;2022-08-03T12:36:52;33.30;1.00
6552;DHT22;3309;48.708;9.290;2022-08-03T12:39:25;33.30;1.00
6552;DHT22;3309;48.708;9.290;2022-08-03T12:41:53;33.00;1.00
6552;DHT22;3309;48.708;9.290;2022-08-03T12:44:28;33.00;1.00
6552;DHT22;3309;48.708;9.290;2022-08-03T12:46:56;33.70;1.00
6552;DHT22;3309;48.708;9.290;2022-08-03T12:49:23;34.20;1.00
6552;DHT22;3309;48.708;9.290;2022-08-03T12:54:19;34.70;1.00
6552;DHT22;3309;48.708;9.290;2022-08-03T12:57:02;33.80;1.00
6552;DHT22;3309;48.708;9.290;2022-08-03T12:59:35;33.70;1.00
6552;DHT22;3309;48.708;9.290;2022-08-03T13:02:04;33.70;1.00
6552;DHT22;3309;48.708;9.290;2022-08-03T13:04:32;33.50;1.00
6552;DHT22;3309;48.708;9.290;2022-08-03T13:07:04;33.20;1.00
6552;DHT22;3309;48.708;9.290;2022-08-03T13:09:52;32.90;1.00
6552;DHT22;3309;48.708;9.290;2022-08-03T13:12:26;33.00;1.00
6552;DHT22;3309;48.708;9.290;2022-08-03T13:14:57;33.00;1.00
6552;DHT22;3309;48.708;9.290;2022-08-03T13:17:24;33.10;1.00
6552;DHT22;3309;48.708;9.290;2022-08-03T13:19:50;33.50;1.00
6552;DHT22;3309;48.708;9.290;2022-08-03T13:22:17;33.60;1.00
6552;DHT22;3309;48.708;9.290;2022-08-03T13:24:45;34.30;1.00
6552;DHT22;3309;48.708;9.290;2022-08-03T13:27:11;34.50;1.00
6552;DHT22;3309;48.708;9.290;2022-08-03T13:29:37;34.50;1.00
6552;DHT22;3309;48.708;9.290;2022-08-03T13:32:04;34.50;1.00
6552;DHT22;3309;48.708;9.290;2022-08-03T13:34:29;34.30;1.00
6552;DHT22;3309;48.708;9.290;2022-08-03T13:36:55;34.20;1.00
6552;DHT22;3309;48.708;9.290;2022-08-03T13:39:21;34.80;1.00
6552;DHT22;3309;48.708;9.290;2022-08-03T13:41:46;35.10;1.00
6552;DHT22;3309;48.708;9.290;2022-08-03T13:44:12;35.00;1.00
6552;DHT22;3309;48.708;9.290;2022-08-03T13:46:38;34.50;1.00
6552;DHT22;3309;48.708;9.290;2022-08-03T13:49:04;34.40;1.00
6552;DHT22;3309;48.708;9.290;2022-08-03T13:51:30;33.60;1.00
6552;DHT22;3309;48.708;9.290;2022-08-03T13:53:55;33.20;1.00
6552;DHT22;3309;48.708;9.290;2022-08-03T13:56:27;33.20;1.00
6552;DHT22;3309;48.708;9.290;2022-08-03T13:58:52;33.40;1.00
6552;DHT22;3309;48.708;9.290;2022-08-03T14:01:18;33.20;1.00
6552;DHT22;3309;48.708;9.290;2022-08-03T14:03:44;33.50;1.00
6552;DHT22;3309;48.708;9.290;2022-08-03T14:06:10;32.80;1.00
6552;DHT22;3309;48.708;9.290;2022-08-03T14:08:36;32.90;1.00
6552;DHT22;3309;48.708;9.290;2022-08-03T14:11:02;32.80;1.00
6552;DHT22;3309;48.708;9.290;2022-08-03T14:13:28;33.00;1.00
6552;DHT22;3309;48.708;9.290;2022-08-03T14:15:53;33.10;1.00
6552;DHT22;3309;48.708;9.290;2022-08-03T14:18:20;33.00;1.00
6552;DHT22;3309;48.708;9.290;2022-08-03T14:20:46;32.90;1.00
6552;DHT22;3309;48.708;9.290;2022-08-03T14:23:12;32.80;1.00
6552;DHT22;3309;48.708;9.290;2022-08-03T14:25:38;33.00;1.00
6552;DHT22;3309;48.708;9.290;2022-08-03T14:28:06;33.30;1.00
6552;DHT22;3309;48.708;9.290;2022-08-03T14:30:31;33.60;1.00
6552;DHT22;3309;48.708;9.290;2022-08-03T14:32:56;33.70;1.00
6552;DHT22;3309;48.708;9.290;2022-08-03T14:35:22;33.80;1.00
6552;DHT22;3309;48.708;9.290;2022-08-03T14:37:47;33.90;1.00
6552;DHT22;3309;48.708;9.290;2022-08-03T14:40:13;33.60;1.00
6552;DHT22;3309;48.708;9.290;2022-08-03T14:42:38;33.60;1.00
6552;DHT22;3309;48.708;9.290;2022-08-03T14:45:04;33.50;1.00
6552;DHT22;3309;48.708;9.290;2022-08-03T14:47:30;33.30;1.00
6552;DHT22;3309;48.708;9.290;2022-08-03T14:49:55;33.40;1.00
6552;DHT22;3309;48.708;9.290;2022-08-03T14:52:21;33.50;1.00
6552;DHT22;3309;48.708;9.290;2022-08-03T14:54:47;33.40;1.00
6552;DHT22;3309;48.708;9.290;2022-08-03T14:57:12;33.20;1.00
6552;DHT22;3309;48.708;9.290;2022-08-03T14:59:38;33.10;1.00
6552;DHT22;3309;48.708;9.290;2022-08-03T15:02:03;32.90;1.00
6552;DHT22;3309;48.708;9.290;2022-08-03T15:04:29;33.00;1.00
6552;DHT22;3309;48.708;9.290;2022-08-03T15:06:54;32.90;1.00
6552;DHT22;3309;48.708;9.290;2022-08-03T15:09:19;32.90;1.00
6552;DHT22;3309;48.708;9.290;2022-08-03T15:11:45;32.80;1.00
6552;DHT22;3309;48.708;9.290;2022-08-03T15:14:11;32.90;1.00
6552;DHT22;3309;48.708;9.290;2022-08-03T15:16:37;33.00;1.00
6552;DHT22;3309;48.708;9.290;2022-08-03T15:19:03;33.10;1.00
6552;DHT22;3309;48.708;9.290;2022-08-03T15:21:29;32.90;1.00
6552;DHT22;3309;48.708;9.290;2022-08-03T15:23:54;32.80;1.00
6552;DHT22;3309;48.708;9.290;2022-08-03T15:26:20;32.60;1.00
6552;DHT22;3309;48.708;9.290;2022-08-03T15:28:45;32.80;1.00
6552;DHT22;3309;48.708;9.290;2022-08-03T15:31:10;32.50;1.00
6552;DHT22;3309;48.708;9.290;2022-08-03T15:33:36;32.60;1.00
6552;DHT22;3309;48.708;9.290;2022-08-03T15:36:03;32.80;1.00
6552;DHT22;3309;48.708;9.290;2022-08-03T15:38:28;32.80;1.00
6552;DHT22;3309;48.708;9.290;2022-08-03T15:40:54;32.80;1.00
6552;DHT22;3309;48.708;9.290;2022-08-03T15:43:23;32.40;1.00
6552;DHT22;3309;48.708;9.290;2022-08-03T15:45:48;32.30;1.00
6552;DHT22;3309;48.708;9.290;2022-08-03T15:48:14;32.20;1.00
6552;DHT22;3309;48.708;9.290;2022-08-03T15:50:39;32.10;1.00
6552;DHT22;3309;48.708;9.290;2022-08-03T15:53:05;32.10;1.00
6552;DHT22;3309;48.708;9.290;2022-08-03T15:55:31;32.00;1.00
6552;DHT22;3309;48.708;9.290;2022-08-03T15:57:57;32.10;1.00
6552;DHT22;3309;48.708;9.290;2022-08-03T16:00:22;32.00;1.00
6552;DHT22;3309;48.708;9.290;2022-08-03T16:02:48;31.90;1.00
6552;DHT22;3309;48.708;9.290;2022-08-03T16:05:13;31.70;1.00
6552;DHT22;3309;48.708;9.290;2022-08-03T16:07:39;31.70;1.00
6552;DHT22;3309;48.708;9.290;2022-08-03T16:10:15;31.70;1.00
6552;DHT22;3309;48.708;9.290;2022-08-03T16:12:41;31.60;1.00
6552;DHT22;3309;48.708;9.290;2022-08-03T16:15:08;31.60;1.00
6552;DHT22;3309;48.708;9.290;2022-08-03T16:17:34;31.50;1.00
6552;DHT22;3309;48.708;9.290;2022-08-03T16:19:59;31.40;1.00
6552;DHT22;3309;48.708;9.290;2022-08-03T16:22:25;31.40;1.00
6552;DHT22;3309;48.708;9.290;2022-08-03T16:24:51;31.40;1.00
6552;DHT22;3309;48.708;9.290;2022-08-03T16:27:17;31.40;1.00
6552;DHT22;3309;48.708;9.290;2022-08-03T16:29:43;31.40;1.00
6552;DHT22;3309;48.708;9.290;2022-08-03T16:32:08;31.40;1.00
6552;DHT22;3309;48.708;9.290;2022-08-03T16:34:35;31.30;1.00
6552;DHT22;3309;48.708;9.290;2022-08-03T16:37:01;31.20;1.00
6552;DHT22;3309;48.708;9.290;2022-08-03T16:39:27;31.10;1.00